sensor_id;sensor_type;location;lat;lon;timestamp;pressure;altitude;pressure_sealevel;temperature;humidity
46876;BME280;32866;50.160;14.768;2024-02-21T00:00:35;100152.94;;;6.08;100.00
46876;BME280;32866;50.160;14.768;2024-02-21T00:03:19;100152.16;;;6.11;100.00
46876;BME280;32866;50.160;14.768;2024-02-21T00:06:03;100148.69;;;6.07;100.00
46876;BME280;32866;50.160;14.768;2024-02-21T00:08:48;100147.47;;;5.93;100.00
46876;BME280;32866;50.160;14.768;2024-02-21T00:11:32;100143.56;;;5.87;100.00
46876;BME280;32866;50.160;14.768;2024-02-21T00:14:16;100142.81;;;6.01;100.00
46876;BME280;32866;50.160;14.768;2024-02-21T00:17:01;100138.94;;;6.02;100.00
46876;BME280;32866;50.160;14.768;2024-02-21T00:19:45;100137.78;;;6.07;100.00
46876;BME280;32866;50.160;14.768;2024-02-21T00:22:30;100137.75;;;6.00;100.00
46876;BME280;32866;50.160;14.768;2024-02-21T00:25:15;100127.63;;;5.89;100.00
46876;BME280;32866;50.160;14.768;2024-02-21T00:27:59;100130.75;;;5.88;100.00
46876;BME280;32866;50.160;14.768;2024-02-21T00:30:44;100124.53;;;5.87;100.00
46876;BME280;32866;50.160;14.768;2024-02-21T00:33:28;100130.34;;;5.89;100.00
46876;BME280;32866;50.160;14.768;2024-02-21T00:36:13;100126.47;;;5.94;100.00
46876;BME280;32866;50.160;14.768;2024-02-21T00:38:57;100128.81;;;5.92;100.00
46876;BME280;32866;50.160;14.768;2024-02-21T00:41:41;100117.53;;;5.86;100.00
46876;BME280;32866;50.160;14.768;2024-02-21T00:44:26;100109.38;;;5.75;100.00
46876;BME280;32866;50.160;14.768;2024-02-21T00:47:10;100112.06;;;5.61;100.00
46876;BME280;32866;50.160;14.768;2024-02-21T00:49:54;100105.84;;;5.68;100.00
46876;BME280;32866;50.160;14.768;2024-02-21T00:52:39;100107.81;;;5.71;100.00
46876;BME280;32866;50.160;14.768;2024-02-21T00:55:23;100100.03;;;5.69;100.00
46876;BME280;32866;50.160;14.768;2024-02-21T00:58:08;100099.66;;;5.56;100.00
46876;BME280;32866;50.160;14.768;2024-02-21T01:00:52;100099.59;;;5.49;100.00
46876;BME280;32866;50.160;14.768;2024-02-21T01:03:39;100093.78;;;5.44;100.00
46876;BME280;32866;50.160;14.768;2024-02-21T01:06:23;100095.31;;;5.37;100.00
46876;BME280;32866;50.160;14.768;2024-02-21T01:09:07;100087.97;;;5.42;100.00
46876;BME280;32866;50.160;14.768;2024-02-21T01:11:54;100080.56;;;5.42;100.00
46876;BME280;32866;50.160;14.768;2024-02-21T01:14:38;100085.25;;;5.45;100.00
46876;BME280;32866;50.160;14.768;2024-02-21T01:17:23;100083.31;;;5.53;100.00
46876;BME280;32866;50.160;14.768;2024-02-21T01:20:07;100075.94;;;5.61;100.00
46876;BME280;32866;50.160;14.768;2024-02-21T01:22:51;100076.31;;;5.55;100.00
46876;BME280;32866;50.160;14.768;2024-02-21T01:25:36;100074.38;;;5.45;100.00
46876;BME280;32866;50.160;14.768;2024-02-21T01:28:20;100065.03;;;5.46;100.00
46876;BME280;32866;50.160;14.768;2024-02-21T01:31:04;100064.25;;;5.31;100.00
46876;BME280;32866;50.160;14.768;2024-02-21T01:33:49;100068.13;;;5.23;100.00
46876;BME280;32866;50.160;14.768;2024-02-21T01:36:33;100059.16;;;5.08;100.00
46876;BME280;32866;50.160;14.768;2024-02-21T01:39:17;100053.66;;;4.94;100.00
46876;BME280;32866;50.160;14.768;2024-02-21T01:42:02;100050.16;;;4.86;100.00
46876;BME280;32866;50.160;14.768;2024-02-21T01:44:46;100041.56;;;4.73;100.00
46876;BME280;32866;50.160;14.768;2024-02-21T01:47:31;100040.72;;;4.58;100.00
46876;BME280;32866;50.160;14.768;2024-02-21T01:50:15;100031.03;;;4.57;100.00
46876;BME280;32866;50.160;14.768;2024-02-21T01:53:01;100036.13;;;4.66;100.00
46876;BME280;32866;50.160;14.768;2024-02-21T01:55:45;100037.63;;;4.56;100.00
46876;BME280;32866;50.160;14.768;2024-02-21T01:58:30;100028.34;;;4.61;100.00
46876;BME280;32866;50.160;14.768;2024-02-21T02:01:14;100026.78;;;4.63;100.00
46876;BME280;32866;50.160;14.768;2024-02-21T02:03:59;100030.72;;;4.80;100.00
46876;BME280;32866;50.160;14.768;2024-02-21T02:06:43;100019.53;;;4.93;100.00
46876;BME280;32866;50.160;14.768;2024-02-21T02:09:27;100017.22;;;5.09;100.00
46876;BME280;32866;50.160;14.768;2024-02-21T02:12:12;100023.06;;;5.11;100.00
46876;BME280;32866;50.160;14.768;2024-02-21T02:14:59;100013.34;;;5.14;100.00
46876;BME280;32866;50.160;14.768;2024-02-21T02:17:44;100012.22;;;5.15;100.00
46876;BME280;32866;50.160;14.768;2024-02-21T02:20:28;100016.09;;;5.25;100.00
46876;BME280;32866;50.160;14.768;2024-02-21T02:23:21;100002.53;;;5.35;100.00
46876;BME280;32866;50.160;14.768;2024-02-21T02:26:05;100011.47;;;5.43;100.00
46876;BME280;32866;50.160;14.768;2024-02-21T02:28:51;100012.22;;;5.51;100.00
46876;BME280;32866;50.160;14.768;2024-02-21T02:31:35;99996.72;;;5.58;100.00
46876;BME280;32866;50.160;14.768;2024-02-21T02:34:19;99993.59;;;5.64;100.00
46876;BME280;32866;50.160;14.768;2024-02-21T02:37:04;99992.44;;;5.57;100.00
46876;BME280;32866;50.160;14.768;2024-02-21T02:39:48;99990.09;;;5.63;100.00
46876;BME280;32866;50.160;14.768;2024-02-21T02:42:33;99990.47;;;5.69;100.00
46876;BME280;32866;50.160;14.768;2024-02-21T02:45:18;99976.88;;;5.72;100.00
46876;BME280;32866;50.160;14.768;2024-02-21T02:48:02;99978.81;;;5.72;100.00
46876;BME280;32866;50.160;14.768;2024-02-21T02:50:46;99980.78;;;5.75;100.00
46876;BME280;32866;50.160;14.768;2024-02-21T02:53:31;99984.66;;;5.74;100.00
46876;BME280;32866;50.160;14.768;2024-02-21T02:56:15;99963.28;;;5.76;100.00
46876;BME280;32866;50.160;14.768;2024-02-21T02:58:59;99961.72;;;5.75;100.00
46876;BME280;32866;50.160;14.768;2024-02-21T03:01:44;99965.22;;;5.75;100.00
46876;BME280;32866;50.160;14.768;2024-02-21T03:04:28;99953.97;;;5.77;100.00
46876;BME280;32866;50.160;14.768;2024-02-21T03:07:13;99953.56;;;5.75;100.00
46876;BME280;32866;50.160;14.768;2024-02-21T03:09:58;99960.16;;;5.74;100.00
46876;BME280;32866;50.160;14.768;2024-02-21T03:12:42;99963.28;;;5.76;100.00
46876;BME280;32866;50.160;14.768;2024-02-21T03:15:26;99953.97;;;5.77;100.00
46876;BME280;32866;50.160;14.768;2024-02-21T03:18:11;99948.50;;;5.77;100.00
46876;BME280;32866;50.160;14.768;2024-02-21T03:20:55;99946.56;;;5.74;100.00
46876;BME280;32866;50.160;14.768;2024-02-21T03:23:40;99948.53;;;5.70;100.00
46876;BME280;32866;50.160;14.768;2024-02-21T03:26:24;99956.69;;;5.70;100.00
46876;BME280;32866;50.160;14.768;2024-02-21T03:29:09;99951.63;;;5.72;100.00
46876;BME280;32866;50.160;14.768;2024-02-21T03:31:54;99956.69;;;5.77;100.00
46876;BME280;32866;50.160;14.768;2024-02-21T03:34:39;99954.72;;;5.81;100.00
46876;BME280;32866;50.160;14.768;2024-02-21T03:37:23;99956.28;;;5.82;100.00
46876;BME280;32866;50.160;14.768;2024-02-21T03:40:10;99957.06;;;5.75;100.00
46876;BME280;32866;50.160;14.768;2024-02-21T03:42:55;99954.72;;;5.74;100.00
46876;BME280;32866;50.160;14.768;2024-02-21T03:45:39;99955.50;;;5.74;100.00
46876;BME280;32866;50.160;14.768;2024-02-21T03:48:23;99946.56;;;5.74;100.00
46876;BME280;32866;50.160;14.768;2024-02-21T03:51:08;99942.28;;;5.73;100.00
46876;BME280;32866;50.160;14.768;2024-02-21T03:53:52;99947.00;;;5.62;100.00
46876;BME280;32866;50.160;14.768;2024-02-21T03:56:37;99945.41;;;5.68;100.00
46876;BME280;32866;50.160;14.768;2024-02-21T03:59:22;99938.81;;;5.65;100.00
46876;BME280;32866;50.160;14.768;2024-02-21T04:02:06;99939.22;;;5.64;100.00
46876;BME280;32866;50.160;14.768;2024-02-21T04:04:52;99940.38;;;5.63;100.00
46876;BME280;32866;50.160;14.768;2024-02-21T04:07:37;99932.22;;;5.59;100.00
46876;BME280;32866;50.160;14.768;2024-02-21T04:10:22;99935.34;;;5.50;100.00
46876;BME280;32866;50.160;14.768;2024-02-21T04:13:06;99936.53;;;5.35;100.00
46876;BME280;32866;50.160;14.768;2024-02-21T04:15:51;99932.63;;;5.32;100.00
46876;BME280;32866;50.160;14.768;2024-02-21T04:18:36;99941.94;;;5.20;100.00
46876;BME280;32866;50.160;14.768;2024-02-21T04:21:20;99939.22;;;5.13;100.00
46876;BME280;32866;50.160;14.768;2024-02-21T04:24:04;99934.94;;;4.98;100.00
46876;BME280;32866;50.160;14.768;2024-02-21T04:26:49;99940.34;;;4.94;100.00
46876;BME280;32866;50.160;14.768;2024-02-21T04:29:33;99935.34;;;5.00;100.00
46876;BME280;32866;50.160;14.768;2024-02-21T04:32:18;99936.88;;;5.01;100.00
46876;BME280;32866;50.160;14.768;2024-02-21T04:35:02;99931.44;;;4.94;100.00
46876;BME280;32866;50.160;14.768;2024-02-21T04:37:47;99925.22;;;4.79;100.00
46876;BME280;32866;50.160;14.768;2024-02-21T04:40:31;99913.16;;;4.58;100.00
46876;BME280;32866;50.160;14.768;2024-02-21T04:43:15;99914.66;;;4.49;100.00
46876;BME280;32866;50.160;14.768;2024-02-21T04:46:00;99914.25;;;4.39;100.00
46876;BME280;32866;50.160;14.768;2024-02-21T04:48:44;99910.41;;;4.48;100.00
46876;BME280;32866;50.160;14.768;2024-02-21T04:51:28;99902.59;;;4.35;100.00
46876;BME280;32866;50.160;14.768;2024-02-21T04:54:13;99902.59;;;4.28;100.00
46876;BME280;32866;50.160;14.768;2024-02-21T04:56:57;99907.63;;;4.26;100.00
46876;BME280;32866;50.160;14.768;2024-02-21T04:59:41;99905.69;;;4.26;100.00
46876;BME280;32866;50.160;14.768;2024-02-21T05:02:26;99894.47;;;4.32;100.00
46876;BME280;32866;50.160;14.768;2024-02-21T05:05:10;99900.63;;;4.25;100.00
46876;BME280;32866;50.160;14.768;2024-02-21T05:07:54;99905.66;;;4.16;100.00
46876;BME280;32866;50.160;14.768;2024-02-21T05:10:39;99897.88;;;4.11;100.00
46876;BME280;32866;50.160;14.768;2024-02-21T05:13:23;99904.81;;;4.04;100.00
46876;BME280;32866;50.160;14.768;2024-02-21T05:16:07;99905.19;;;3.99;100.00
46876;BME280;32866;50.160;14.768;2024-02-21T05:18:52;99904.06;;;4.07;100.00
46876;BME280;32866;50.160;14.768;2024-02-21T05:21:36;99908.69;;;4.03;100.00
46876;BME280;32866;50.160;14.768;2024-02-21T05:24:21;99914.47;;;4.02;100.00
46876;BME280;32866;50.160;14.768;2024-02-21T05:27:05;99906.34;;;3.98;100.00
46876;BME280;32866;50.160;14.768;2024-02-21T05:29:49;99906.34;;;3.98;100.00
46876;BME280;32866;50.160;14.768;2024-02-21T05:32:34;99901.31;;;4.00;100.00
46876;BME280;32866;50.160;14.768;2024-02-21T05:35:18;99901.69;;;3.99;100.00
46876;BME280;32866;50.160;14.768;2024-02-21T05:38:02;99895.84;;;3.93;100.00
46876;BME280;32866;50.160;14.768;2024-02-21T05:40:50;99896.22;;;3.88;100.00
46876;BME280;32866;50.160;14.768;2024-02-21T05:43:34;99892.34;;;3.89;100.00
46876;BME280;32866;50.160;14.768;2024-02-21T05:46:19;99893.88;;;3.86;100.00
46876;BME280;32866;50.160;14.768;2024-02-21T05:49:03;99895.84;;;3.93;100.00
46876;BME280;32866;50.160;14.768;2024-02-21T05:51:48;99893.16;;;3.97;100.00
46876;BME280;32866;50.160;14.768;2024-02-21T05:54:32;99881.56;;;4.03;100.00
46876;BME280;32866;50.160;14.768;2024-02-21T05:57:19;99892.03;;;4.08;100.00
46876;BME280;32866;50.160;14.768;2024-02-21T06:00:05;99890.91;;;4.13;100.00
46876;BME280;32866;50.160;14.768;2024-02-21T06:02:49;99887.81;;;4.15;100.00
46876;BME280;32866;50.160;14.768;2024-02-21T06:05:37;99890.16;;;4.20;100.00
46876;BME280;32866;50.160;14.768;2024-02-21T06:08:22;99891.00;;;4.42;100.00
46876;BME280;32866;50.160;14.768;2024-02-21T06:11:06;99883.28;;;4.48;100.00
46876;BME280;32866;50.160;14.768;2024-02-21T06:13:50;99886.38;;;4.64;100.00
46876;BME280;32866;50.160;14.768;2024-02-21T06:16:35;99877.09;;;4.69;100.00
46876;BME280;32866;50.160;14.768;2024-02-21T06:19:19;99881.78;;;4.86;100.00
46876;BME280;32866;50.160;14.768;2024-02-21T06:22:03;99877.53;;;5.07;100.00
46876;BME280;32866;50.160;14.768;2024-02-21T06:24:52;99877.50;;;5.17;100.00
46876;BME280;32866;50.160;14.768;2024-02-21T06:27:38;99875.97;;;5.16;100.00
46876;BME280;32866;50.160;14.768;2024-02-21T06:30:22;99874.81;;;5.25;100.00
46876;BME280;32866;50.160;14.768;2024-02-21T06:33:06;99873.22;;;5.31;100.00
46876;BME280;32866;50.160;14.768;2024-02-21T06:35:51;99877.88;;;5.30;100.00
46876;BME280;32866;50.160;14.768;2024-02-21T06:38:39;99874.78;;;5.39;100.00
46876;BME280;32866;50.160;14.768;2024-02-21T06:41:23;99875.53;;;5.50;100.00
46876;BME280;32866;50.160;14.768;2024-02-21T06:44:07;99880.53;;;5.63;100.00
46876;BME280;32866;50.160;14.768;2024-02-21T06:46:52;99878.22;;;5.61;100.00
46876;BME280;32866;50.160;14.768;2024-02-21T06:49:36;99870.84;;;5.62;100.00
46876;BME280;32866;50.160;14.768;2024-02-21T06:52:21;99872.78;;;5.65;100.00
46876;BME280;32866;50.160;14.768;2024-02-21T06:55:05;99868.88;;;5.73;100.00
46876;BME280;32866;50.160;14.768;2024-02-21T06:57:50;99873.50;;;5.90;100.00
46876;BME280;32866;50.160;14.768;2024-02-21T07:00:34;99875.78;;;6.03;100.00
46876;BME280;32866;50.160;14.768;2024-02-21T07:03:18;99874.97;;;6.20;100.00
46876;BME280;32866;50.160;14.768;2024-02-21T07:06:03;99873.75;;;6.28;100.00
46876;BME280;32866;50.160;14.768;2024-02-21T07:08:47;99871.00;;;6.36;100.00
46876;BME280;32866;50.160;14.768;2024-02-21T07:11:31;99869.38;;;6.45;100.00
46876;BME280;32866;50.160;14.768;2024-02-21T07:14:16;99864.31;;;6.47;100.00
46876;BME280;32866;50.160;14.768;2024-02-21T07:17:00;99873.97;;;6.59;100.00
46876;BME280;32866;50.160;14.768;2024-02-21T07:19:44;99869.25;;;6.63;100.00
46876;BME280;32866;50.160;14.768;2024-02-21T07:22:29;99867.66;;;6.69;100.00
46876;BME280;32866;50.160;14.768;2024-02-21T07:25:19;99865.72;;;6.74;100.00
46876;BME280;32866;50.160;14.768;2024-02-21T07:28:04;99860.22;;;6.81;100.00
46876;BME280;32866;50.160;14.768;2024-02-21T07:30:48;99852.31;;;6.94;100.00
46876;BME280;32866;50.160;14.768;2024-02-21T07:33:32;99859.25;;;7.02;100.00
46876;BME280;32866;50.160;14.768;2024-02-21T07:36:28;99850.31;;;7.01;100.00
46876;BME280;32866;50.160;14.768;2024-02-21T07:39:13;99853.09;;;6.94;100.00
46876;BME280;32866;50.160;14.768;2024-02-21T07:41:58;99853.03;;;7.01;100.00
46876;BME280;32866;50.160;14.768;2024-02-21T07:44:42;99845.19;;;7.11;100.00
46876;BME280;32866;50.160;14.768;2024-02-21T07:47:26;99852.84;;;7.23;100.00
46876;BME280;32866;50.160;14.768;2024-02-21T07:50:11;99854.34;;;7.31;100.00
46876;BME280;32866;50.160;14.768;2024-02-21T07:52:55;99849.25;;;7.33;100.00
46876;BME280;32866;50.160;14.768;2024-02-21T07:55:39;99855.44;;;7.37;100.00
46876;BME280;32866;50.160;14.768;2024-02-21T07:58:24;99852.72;;;7.37;100.00
46876;BME280;32866;50.160;14.768;2024-02-21T08:01:08;99851.88;;;7.44;100.00
46876;BME280;32866;50.160;14.768;2024-02-21T08:03:52;99847.59;;;7.43;100.00
46876;BME280;32866;50.160;14.768;2024-02-21T08:06:37;99858.81;;;7.49;100.00
46876;BME280;32866;50.160;14.768;2024-02-21T08:09:22;99854.94;;;7.50;100.00
46876;BME280;32866;50.160;14.768;2024-02-21T08:12:06;99857.97;;;7.55;100.00
46876;BME280;32866;50.160;14.768;2024-02-21T08:14:51;99855.50;;;7.68;100.00
46876;BME280;32866;50.160;14.768;2024-02-21T08:17:36;99853.72;;;7.89;100.00
46876;BME280;32866;50.160;14.768;2024-02-21T08:20:20;99844.03;;;8.15;100.00
46876;BME280;32866;50.160;14.768;2024-02-21T08:23:04;99850.69;;;8.41;100.00
46876;BME280;32866;50.160;14.768;2024-02-21T08:25:48;99841.88;;;8.61;100.00
46876;BME280;32866;50.160;14.768;2024-02-21T08:28:33;99840.22;;;8.67;100.00
46876;BME280;32866;50.160;14.768;2024-02-21T08:31:18;99838.50;;;8.49;100.00
46876;BME280;32866;50.160;14.768;2024-02-21T08:34:03;99829.31;;;8.36;100.00
46876;BME280;32866;50.160;14.768;2024-02-21T08:36:47;99833.72;;;8.30;100.00
46876;BME280;32866;50.160;14.768;2024-02-21T08:39:32;99828.19;;;8.33;100.00
46876;BME280;32866;50.160;14.768;2024-02-21T08:42:16;99823.56;;;8.30;100.00
46876;BME280;32866;50.160;14.768;2024-02-21T08:45:01;99815.06;;;8.25;100.00
46876;BME280;32866;50.160;14.768;2024-02-21T08:47:45;99820.00;;;8.33;100.00
46876;BME280;32866;50.160;14.768;2024-02-21T08:50:30;99822.50;;;8.51;100.00
46876;BME280;32866;50.160;14.768;2024-02-21T08:53:14;99822.28;;;8.66;100.00
46876;BME280;32866;50.160;14.768;2024-02-21T08:55:58;99813.03;;;8.60;100.00
46876;BME280;32866;50.160;14.768;2024-02-21T08:58:43;99810.53;;;8.69;100.00
46876;BME280;32866;50.160;14.768;2024-02-21T09:01:27;99817.19;;;9.15;100.00
46876;BME280;32866;50.160;14.768;2024-02-21T09:04:12;99809.78;;;9.36;100.00
46876;BME280;32866;50.160;14.768;2024-02-21T09:06:57;99811.88;;;9.28;100.00
46876;BME280;32866;50.160;14.768;2024-02-21T09:09:41;99817.22;;;9.35;100.00
46876;BME280;32866;50.160;14.768;2024-02-21T09:12:26;99820.09;;;9.48;100.00
46876;BME280;32866;50.160;14.768;2024-02-21T09:15:10;99819.06;;;9.42;100.00
46876;BME280;32866;50.160;14.768;2024-02-21T09:17:55;99836.09;;;9.06;100.00
46876;BME280;32866;50.160;14.768;2024-02-21T09:20:39;99836.19;;;8.75;100.00
46876;BME280;32866;50.160;14.768;2024-02-21T09:23:24;99831.94;;;8.47;100.00
46876;BME280;32866;50.160;14.768;2024-02-21T09:26:08;99829.84;;;8.54;100.00
46876;BME280;32866;50.160;14.768;2024-02-21T09:28:57;99831.00;;;8.57;100.00
46876;BME280;32866;50.160;14.768;2024-02-21T09:31:42;99814.66;;;8.53;100.00
46876;BME280;32866;50.160;14.768;2024-02-21T09:34:26;99813.69;;;8.91;100.00
46876;BME280;32866;50.160;14.768;2024-02-21T09:37:12;99815.53;;;9.41;100.00
46876;BME280;32866;50.160;14.768;2024-02-21T09:39:56;99810.38;;;9.67;100.00
46876;BME280;32866;50.160;14.768;2024-02-21T09:42:41;99792.22;;;9.93;100.00
46876;BME280;32866;50.160;14.768;2024-02-21T09:45:25;99793.56;;;10.21;100.00
46876;BME280;32866;50.160;14.768;2024-02-21T09:51:17;99784.09;;;9.90;100.00
46876;BME280;32866;50.160;14.768;2024-02-21T09:54:03;99769.00;;;10.54;100.00
46876;BME280;32866;50.160;14.768;2024-02-21T09:56:48;99777.78;;;10.95;100.00
46876;BME280;32866;50.160;14.768;2024-02-21T09:59:33;99766.25;;;11.17;100.00
46876;BME280;32866;50.160;14.768;2024-02-21T10:02:17;99752.50;;;11.33;100.00
46876;BME280;32866;50.160;14.768;2024-02-21T10:05:02;99763.81;;;11.90;100.00
46876;BME280;32866;50.160;14.768;2024-02-21T10:07:48;99753.78;;;12.73;100.00
46876;BME280;32866;50.160;14.768;2024-02-21T10:10:40;99755.91;;;12.56;100.00
46876;BME280;32866;50.160;14.768;2024-02-21T10:13:25;99757.63;;;13.46;100.00
46876;BME280;32866;50.160;14.768;2024-02-21T10:16:10;99739.16;;;13.87;100.00
46876;BME280;32866;50.160;14.768;2024-02-21T10:18:54;99730.25;;;14.82;100.00
46876;BME280;32866;50.160;14.768;2024-02-21T10:21:38;99733.31;;;14.75;100.00
46876;BME280;32866;50.160;14.768;2024-02-21T10:24:26;99729.97;;;14.21;100.00
46876;BME280;32866;50.160;14.768;2024-02-21T10:27:10;99728.94;;;15.76;100.00
46876;BME280;32866;50.160;14.768;2024-02-21T10:29:55;99735.16;;;15.25;100.00
46876;BME280;32866;50.160;14.768;2024-02-21T10:32:49;99734.56;;;13.52;100.00
46876;BME280;32866;50.160;14.768;2024-02-21T10:35:34;99749.19;;;13.27;100.00
46876;BME280;32866;50.160;14.768;2024-02-21T10:38:18;99741.19;;;13.42;100.00
46876;BME280;32866;50.160;14.768;2024-02-21T10:41:04;99749.19;;;13.27;100.00
46876;BME280;32866;50.160;14.768;2024-02-21T10:43:52;99738.94;;;13.28;100.00
46876;BME280;32866;50.160;14.768;2024-02-21T10:46:38;99741.22;;;11.99;100.00
46876;BME280;32866;50.160;14.768;2024-02-21T10:49:23;99746.06;;;11.52;100.00
46876;BME280;32866;50.160;14.768;2024-02-21T10:52:14;99742.59;;;11.65;100.00
46876;BME280;32866;50.160;14.768;2024-02-21T10:55:01;99743.84;;;12.41;100.00
46876;BME280;32866;50.160;14.768;2024-02-21T10:57:47;99730.84;;;12.54;100.00
46876;BME280;32866;50.160;14.768;2024-02-21T11:00:31;99729.91;;;13.71;100.00
46876;BME280;32866;50.160;14.768;2024-02-21T11:03:17;99719.16;;;17.05;95.05
46876;BME280;32866;50.160;14.768;2024-02-21T11:06:02;99717.69;;;18.49;76.61
46876;BME280;32866;50.160;14.768;2024-02-21T11:08:47;99727.59;;;17.70;71.61
46876;BME280;32866;50.160;14.768;2024-02-21T11:11:55;99714.44;;;17.65;73.46
46876;BME280;32866;50.160;14.768;2024-02-21T11:14:38;99716.19;;;16.69;75.01
46876;BME280;32866;50.160;14.768;2024-02-21T11:17:24;99726.47;;;14.30;85.38
46876;BME280;32866;50.160;14.768;2024-02-21T11:20:12;99716.94;;;13.06;91.30
46876;BME280;32866;50.160;14.768;2024-02-21T11:22:56;99677.00;;;12.44;94.85
46876;BME280;32866;50.160;14.768;2024-02-21T11:25:41;99708.34;;;12.21;100.00
46876;BME280;32866;50.160;14.768;2024-02-21T11:28:25;99706.84;;;12.68;97.87
46876;BME280;32866;50.160;14.768;2024-02-21T11:31:13;99678.91;;;13.98;88.07
46876;BME280;32866;50.160;14.768;2024-02-21T11:33:59;99677.84;;;15.01;82.57
46876;BME280;32866;50.160;14.768;2024-02-21T11:39:33;99626.88;;;15.39;81.04
46876;BME280;32866;50.160;14.768;2024-02-21T11:42:19;99641.22;;;16.82;74.35
46876;BME280;32866;50.160;14.768;2024-02-21T11:45:04;99667.00;;;16.25;74.26
46876;BME280;32866;50.160;14.768;2024-02-21T11:47:49;99650.25;;;14.55;79.02
46876;BME280;32866;50.160;14.768;2024-02-21T11:50:36;99651.78;;;14.46;82.88
46876;BME280;32866;50.160;14.768;2024-02-21T11:53:21;99639.84;;;14.96;82.03
46876;BME280;32866;50.160;14.768;2024-02-21T11:56:06;99645.03;;;15.64;78.34
46876;BME280;32866;50.160;14.768;2024-02-21T11:58:51;99610.72;;;14.58;79.29
46876;BME280;32866;50.160;14.768;2024-02-21T12:01:35;99642.84;;;14.24;82.95
46876;BME280;32866;50.160;14.768;2024-02-21T12:04:20;99597.94;;;13.86;81.19
46876;BME280;32866;50.160;14.768;2024-02-21T12:07:05;99643.75;;;14.21;81.27
46876;BME280;32866;50.160;14.768;2024-02-21T12:09:50;99623.59;;;14.33;84.19
46876;BME280;32866;50.160;14.768;2024-02-21T12:12:35;99606.25;;;14.33;82.26
46876;BME280;32866;50.160;14.768;2024-02-21T12:15:21;99625.56;;;14.23;82.20
46876;BME280;32866;50.160;14.768;2024-02-21T12:18:06;99603.84;;;13.76;84.12
46876;BME280;32866;50.160;14.768;2024-02-21T12:20:50;99617.53;;;13.48;86.86
46876;BME280;32866;50.160;14.768;2024-02-21T12:23:34;99617.13;;;13.05;90.45
46876;BME280;32866;50.160;14.768;2024-02-21T12:26:19;99599.16;;;12.47;91.21
46876;BME280;32866;50.160;14.768;2024-02-21T12:29:03;99590.31;;;12.30;92.07
46876;BME280;32866;50.160;14.768;2024-02-21T12:31:48;99599.44;;;12.62;91.80
46876;BME280;32866;50.160;14.768;2024-02-21T12:34:33;99566.53;;;13.03;91.46
46876;BME280;32866;50.160;14.768;2024-02-21T12:37:17;99574.03;;;13.33;88.77
46876;BME280;32866;50.160;14.768;2024-02-21T12:40:05;99579.28;;;13.41;88.95
46876;BME280;32866;50.160;14.768;2024-02-21T12:42:50;99578.84;;;12.89;90.97
46876;BME280;32866;50.160;14.768;2024-02-21T12:45:37;99548.97;;;12.78;90.81
46876;BME280;32866;50.160;14.768;2024-02-21T12:48:21;99574.59;;;12.31;94.01
46876;BME280;32866;50.160;14.768;2024-02-21T12:51:06;99563.94;;;12.55;95.32
46876;BME280;32866;50.160;14.768;2024-02-21T12:53:51;99549.03;;;12.65;94.05
46876;BME280;32866;50.160;14.768;2024-02-21T12:56:35;99544.69;;;12.77;94.40
46876;BME280;32866;50.160;14.768;2024-02-21T12:59:19;99546.72;;;12.41;93.59
46876;BME280;32866;50.160;14.768;2024-02-21T13:02:04;99533.16;;;12.91;91.43
46876;BME280;32866;50.160;14.768;2024-02-21T13:04:49;99512.78;;;13.51;88.74
46876;BME280;32866;50.160;14.768;2024-02-21T13:07:33;99510.56;;;13.96;85.57
46876;BME280;32866;50.160;14.768;2024-02-21T13:10:18;99487.25;;;13.60;87.30
46876;BME280;32866;50.160;14.768;2024-02-21T13:13:03;99493.72;;;14.50;85.48
46876;BME280;32866;50.160;14.768;2024-02-21T13:15:48;99490.75;;;14.81;81.69
46876;BME280;32866;50.160;14.768;2024-02-21T13:18:32;99487.28;;;13.69;83.65
46876;BME280;32866;50.160;14.768;2024-02-21T13:21:17;99484.38;;;13.14;88.55
46876;BME280;32866;50.160;14.768;2024-02-21T13:24:01;99474.31;;;13.29;89.54
46876;BME280;32866;50.160;14.768;2024-02-21T13:26:46;99426.41;;;12.99;89.87
46876;BME280;32866;50.160;14.768;2024-02-21T13:29:30;99422.09;;;12.57;94.53
46876;BME280;32866;50.160;14.768;2024-02-21T13:32:15;99428.78;;;12.03;98.96
46876;BME280;32866;50.160;14.768;2024-02-21T13:35:00;99486.09;;;12.14;100.00
46876;BME280;32866;50.160;14.768;2024-02-21T13:37:45;99434.66;;;11.92;100.00
46876;BME280;32866;50.160;14.768;2024-02-21T13:40:30;99458.09;;;12.50;96.15
46876;BME280;32866;50.160;14.768;2024-02-21T13:43:14;99464.28;;;12.64;93.99
46876;BME280;32866;50.160;14.768;2024-02-21T13:46:00;99459.72;;;12.38;96.39
46876;BME280;32866;50.160;14.768;2024-02-21T13:48:46;99442.13;;;12.36;99.06
46876;BME280;32866;50.160;14.768;2024-02-21T13:51:31;99440.34;;;12.42;96.11
46876;BME280;32866;50.160;14.768;2024-02-21T13:54:16;99422.38;;;12.28;95.31
46876;BME280;32866;50.160;14.768;2024-02-21T13:57:03;99405.25;;;12.46;95.85
46876;BME280;32866;50.160;14.768;2024-02-21T13:59:48;99439.47;;;12.54;92.67
46876;BME280;32866;50.160;14.768;2024-02-21T14:02:33;99431.50;;;13.19;90.76
46876;BME280;32866;50.160;14.768;2024-02-21T14:05:17;99436.00;;;13.53;88.12
46876;BME280;32866;50.160;14.768;2024-02-21T14:08:02;99409.09;;;13.85;85.52
46876;BME280;32866;50.160;14.768;2024-02-21T14:10:47;99425.47;;;14.17;81.78
46876;BME280;32866;50.160;14.768;2024-02-21T14:13:31;99429.38;;;14.43;83.51
46876;BME280;32866;50.160;14.768;2024-02-21T14:16:16;99397.34;;;13.66;82.50
46876;BME280;32866;50.160;14.768;2024-02-21T14:19:00;99413.00;;;13.29;87.59
46876;BME280;32866;50.160;14.768;2024-02-21T14:21:46;99427.22;;;13.18;88.39
46876;BME280;32866;50.160;14.768;2024-02-21T14:24:30;99393.19;;;12.84;89.30